sensor_id;sensor_type;location;lat;lon;timestamp;pressure;altitude;pressure_sealevel;temperature;humidity
70200;BME280;57587;55.688;37.600;2023-02-02T00:01:48;98484.03;;;1.64;63.60
70200;BME280;57587;55.688;37.600;2023-02-02T00:04:18;98486.94;;;1.52;63.81
70200;BME280;57587;55.688;37.600;2023-02-02T00:06:45;98489.88;;;1.49;63.89
70200;BME280;57587;55.688;37.600;2023-02-02T00:09:16;98492.03;;;1.54;63.54
70200;BME280;57587;55.688;37.600;2023-02-02T00:11:44;98482.06;;;1.40;64.36
70200;BME280;57587;55.688;37.600;2023-02-02T00:14:13;98489.88;;;1.49;63.95
70200;BME280;57587;55.688;37.600;2023-02-02T00:16:51;98476.69;;;1.49;63.23
70200;BME280;57587;55.688;37.600;2023-02-02T00:19:26;98489.09;;;1.57;62.87
70200;BME280;57587;55.688;37.600;2023-02-02T00:21:56;98482.84;;;1.58;62.46
70200;BME280;57587;55.688;37.600;2023-02-02T00:24:23;98484.72;;;1.66;62.26
70200;BME280;57587;55.688;37.600;2023-02-02T00:26:57;98484.78;;;1.74;62.58
70200;BME280;57587;55.688;37.600;2023-02-02T00:29:27;98475.06;;;1.74;62.49
70200;BME280;57587;55.688;37.600;2023-02-02T00:31:55;98471.94;;;1.53;62.37
70200;BME280;57587;55.688;37.600;2023-02-02T00:34:23;98471.34;;;1.41;62.75
70200;BME280;57587;55.688;37.600;2023-02-02T00:36:50;98472.13;;;1.33;62.52
70200;BME280;57587;55.688;37.600;2023-02-02T00:39:20;98476.50;;;1.43;62.19
70200;BME280;57587;55.688;37.600;2023-02-02T00:41:48;98485.47;;;1.58;62.00
70200;BME280;57587;55.688;37.600;2023-02-02T00:44:15;98474.88;;;1.50;61.80
70200;BME280;57587;55.688;37.600;2023-02-02T00:47:01;98474.50;;;1.45;61.95
70200;BME280;57587;55.688;37.600;2023-02-02T00:49:29;98475.06;;;1.30;61.46
70200;BME280;57587;55.688;37.600;2023-02-02T00:51:56;98480.84;;;1.34;62.17
70200;BME280;57587;55.688;37.600;2023-02-02T00:54:24;98485.72;;;1.47;61.80
70200;BME280;57587;55.688;37.600;2023-02-02T00:56:51;98475.94;;;1.39;61.22
70200;BME280;57587;55.688;37.600;2023-02-02T00:59:18;98485.34;;;1.42;60.80
70200;BME280;57587;55.688;37.600;2023-02-02T01:01:45;98476.00;;;1.47;60.18
70200;BME280;57587;55.688;37.600;2023-02-02T01:04:12;98477.00;;;1.46;60.34
70200;BME280;57587;55.688;37.600;2023-02-02T01:06:39;98479.44;;;1.40;60.10
70200;BME280;57587;55.688;37.600;2023-02-02T01:09:08;98468.88;;;1.22;60.99
70200;BME280;57587;55.688;37.600;2023-02-02T01:11:35;98474.84;;;1.06;61.11
70200;BME280;57587;55.688;37.600;2023-02-02T01:14:02;98474.53;;;1.09;61.20
70200;BME280;57587;55.688;37.600;2023-02-02T01:16:30;98474.38;;;1.10;61.12
70200;BME280;57587;55.688;37.600;2023-02-02T01:18:58;98475.81;;;1.05;61.18
70200;BME280;57587;55.688;37.600;2023-02-02T01:21:25;98472.72;;;0.91;60.39
70200;BME280;57587;55.688;37.600;2023-02-02T01:23:52;98466.09;;;0.87;60.99
70200;BME280;57587;55.688;37.600;2023-02-02T01:26:19;98466.31;;;0.94;61.18
70200;BME280;57587;55.688;37.600;2023-02-02T01:28:47;98473.41;;;0.94;61.35
70200;BME280;57587;55.688;37.600;2023-02-02T01:31:16;98463.06;;;0.82;61.91
70200;BME280;57587;55.688;37.600;2023-02-02T01:33:46;98467.59;;;0.72;62.05
70200;BME280;57587;55.688;37.600;2023-02-02T01:36:16;98472.31;;;0.68;61.90
70200;BME280;57587;55.688;37.600;2023-02-02T01:38:44;98465.69;;;0.64;62.42
70200;BME280;57587;55.688;37.600;2023-02-02T01:41:17;98467.78;;;0.61;62.48
70200;BME280;57587;55.688;37.600;2023-02-02T01:46:33;98458.69;;;0.73;61.99
70200;BME280;57587;55.688;37.600;2023-02-02T01:52:03;98462.97;;;0.74;61.71
70200;BME280;57587;55.688;37.600;2023-02-02T01:54:49;98461.84;;;0.77;61.68
70200;BME280;57587;55.688;37.600;2023-02-02T01:57:29;98468.94;;;0.76;61.84
70200;BME280;57587;55.688;37.600;2023-02-02T01:59:59;98462.22;;;0.64;61.96
70200;BME280;57587;55.688;37.600;2023-02-02T02:02:31;98475.69;;;0.61;61.85
70200;BME280;57587;55.688;37.600;2023-02-02T02:05:00;98478.91;;;0.55;63.02
70200;BME280;57587;55.688;37.600;2023-02-02T02:07:29;98470.41;;;0.61;62.32
70200;BME280;57587;55.688;37.600;2023-02-02T02:09:56;98469.88;;;0.57;62.26
70200;BME280;57587;55.688;37.600;2023-02-02T02:12:24;98475.97;;;0.58;63.14
70200;BME280;57587;55.688;37.600;2023-02-02T02:14:51;98467.78;;;0.61;62.67
70200;BME280;57587;55.688;37.600;2023-02-02T02:18:06;98473.84;;;0.43;63.11
70200;BME280;57587;55.688;37.600;2023-02-02T02:23:43;98472.13;;;0.52;63.19
70200;BME280;57587;55.688;37.600;2023-02-02T02:34:52;98473.34;;;0.58;62.80
70200;BME280;57587;55.688;37.600;2023-02-02T02:40:05;98471.88;;;0.45;62.42
70200;BME280;57587;55.688;37.600;2023-02-02T02:42:39;98477.25;;;0.26;62.15
70200;BME280;57587;55.688;37.600;2023-02-02T02:45:11;98485.25;;;0.34;61.86
70200;BME280;57587;55.688;37.600;2023-02-02T02:47:40;98477.06;;;0.37;61.91
70200;BME280;57587;55.688;37.600;2023-02-02T02:50:09;98473.28;;;0.40;61.90
70200;BME280;57587;55.688;37.600;2023-02-02T02:52:37;98479.13;;;0.34;62.05
70200;BME280;57587;55.688;37.600;2023-02-02T02:55:08;98477.41;;;0.15;61.92
70200;BME280;57587;55.688;37.600;2023-02-02T03:03:20;98487.47;;;0.29;61.57
70200;BME280;57587;55.688;37.600;2023-02-02T03:11:04;98485.50;;;0.41;60.81
70200;BME280;57587;55.688;37.600;2023-02-02T03:13:33;98473.34;;;0.30;61.53
70200;BME280;57587;55.688;37.600;2023-02-02T03:16:00;98481.34;;;0.38;61.31
70200;BME280;57587;55.688;37.600;2023-02-02T03:18:29;98478.03;;;0.36;61.07
70200;BME280;57587;55.688;37.600;2023-02-02T03:20:57;98478.81;;;0.47;60.70
70200;BME280;57587;55.688;37.600;2023-02-02T03:23:25;98482.13;;;0.49;60.99
70200;BME280;57587;55.688;37.600;2023-02-02T03:25:53;98491.38;;;0.25;61.45
70200;BME280;57587;55.688;37.600;2023-02-02T03:28:22;98488.91;;;0.14;61.85
70200;BME280;57587;55.688;37.600;2023-02-02T03:30:49;98488.91;;;0.14;61.25
70200;BME280;57587;55.688;37.600;2023-02-02T03:33:18;98488.91;;;0.14;61.89
70200;BME280;57587;55.688;37.600;2023-02-02T03:35:45;98492.38;;;0.14;61.84
70200;BME280;57587;55.688;37.600;2023-02-02T03:38:13;98507.19;;;0.15;61.95
70200;BME280;57587;55.688;37.600;2023-02-02T03:40:40;98490.56;;;0.15;62.43
70200;BME280;57587;55.688;37.600;2023-02-02T03:43:07;98502.72;;;0.26;62.08
70200;BME280;57587;55.688;37.600;2023-02-02T03:45:34;98488.75;;;0.25;61.93
70200;BME280;57587;55.688;37.600;2023-02-02T03:48:03;98494.97;;;0.24;61.67
70200;BME280;57587;55.688;37.600;2023-02-02T03:50:32;98491.56;;;0.41;61.70
70200;BME280;57587;55.688;37.600;2023-02-02T03:52:59;98498.50;;;0.42;61.07
70200;BME280;57587;55.688;37.600;2023-02-02T03:55:26;98493.56;;;0.30;61.65
70200;BME280;57587;55.688;37.600;2023-02-02T03:57:53;98494.84;;;0.26;62.24
70200;BME280;57587;55.688;37.600;2023-02-02T04:00:20;98493.31;;;0.23;61.66
70200;BME280;57587;55.688;37.600;2023-02-02T04:02:47;98505.09;;;0.19;61.71
70200;BME280;57587;55.688;37.600;2023-02-02T04:05:14;98497.09;;;0.11;62.26
70200;BME280;57587;55.688;37.600;2023-02-02T04:07:41;98502.47;;;0.19;62.23
70200;BME280;57587;55.688;37.600;2023-02-02T04:10:09;98501.91;;;0.15;62.29
70200;BME280;57587;55.688;37.600;2023-02-02T04:12:36;98498.88;;;0.20;61.83
70200;BME280;57587;55.688;37.600;2023-02-02T04:15:03;98508.28;;;0.22;61.97
70200;BME280;57587;55.688;37.600;2023-02-02T04:17:31;98495.53;;;0.18;61.90
70200;BME280;57587;55.688;37.600;2023-02-02T04:19:58;98504.00;;;0.12;62.47
70200;BME280;57587;55.688;37.600;2023-02-02T04:22:25;98512.22;;;-0.01;63.31
70200;BME280;57587;55.688;37.600;2023-02-02T04:24:52;98500.00;;;0.08;63.12
70200;BME280;57587;55.688;37.600;2023-02-02T04:27:19;98502.06;;;0.14;62.79
70200;BME280;57587;55.688;37.600;2023-02-02T04:29:46;98500.97;;;0.16;62.79
70200;BME280;57587;55.688;37.600;2023-02-02T04:32:14;98502.47;;;0.19;62.85
70200;BME280;57587;55.688;37.600;2023-02-02T04:34:42;98498.56;;;0.23;62.83
70200;BME280;57587;55.688;37.600;2023-02-02T04:37:10;98499.72;;;0.11;63.48
70200;BME280;57587;55.688;37.600;2023-02-02T04:39:37;98504.53;;;0.15;63.74
70200;BME280;57587;55.688;37.600;2023-02-02T04:42:04;98506.06;;;0.18;63.69
70200;BME280;57587;55.688;37.600;2023-02-02T04:44:32;98514.63;;;0.30;64.13
70200;BME280;57587;55.688;37.600;2023-02-02T04:46:59;98510.25;;;0.11;64.57
70200;BME280;57587;55.688;37.600;2023-02-02T04:49:26;98512.22;;;-0.01;65.42
70200;BME280;57587;55.688;37.600;2023-02-02T04:51:53;98523.97;;;0.05;65.65
70200;BME280;57587;55.688;37.600;2023-02-02T04:54:20;98523.97;;;0.05;65.74
70200;BME280;57587;55.688;37.600;2023-02-02T04:56:47;98516.13;;;-0.05;65.84
70200;BME280;57587;55.688;37.600;2023-02-02T04:59:14;98521.09;;;-0.02;66.12
70200;BME280;57587;55.688;37.600;2023-02-02T05:01:41;98519.69;;;0.04;65.92
70200;BME280;57587;55.688;37.600;2023-02-02T05:04:10;98522.31;;;0.04;65.85
70200;BME280;57587;55.688;37.600;2023-02-02T05:06:37;98531.72;;;-0.04;66.21
70200;BME280;57587;55.688;37.600;2023-02-02T05:09:04;98524.41;;;-0.10;66.27
70200;BME280;57587;55.688;37.600;2023-02-02T05:11:31;98525.66;;;-0.04;66.12
70200;BME280;57587;55.688;37.600;2023-02-02T05:13:58;98520.13;;;-0.11;66.00
70200;BME280;57587;55.688;37.600;2023-02-02T05:16:25;98523.84;;;-0.04;65.98
70200;BME280;57587;55.688;37.600;2023-02-02T05:18:55;98525.66;;;-0.04;66.19
70200;BME280;57587;55.688;37.600;2023-02-02T05:21:23;98537.41;;;0.02;65.91
70200;BME280;57587;55.688;37.600;2023-02-02T05:23:50;98526.75;;;-0.07;66.07
70200;BME280;57587;55.688;37.600;2023-02-02T05:26:23;98529.09;;;-0.04;66.47
70200;BME280;57587;55.688;37.600;2023-02-02T05:28:50;98534.09;;;-0.10;66.14
70200;BME280;57587;55.688;37.600;2023-02-02T05:31:19;98529.81;;;-0.02;65.95
70200;BME280;57587;55.688;37.600;2023-02-02T05:33:47;98530.63;;;-0.01;65.91
70200;BME280;57587;55.688;37.600;2023-02-02T05:36:14;98529.69;;;0.00;65.96
70200;BME280;57587;55.688;37.600;2023-02-02T05:38:41;98531.28;;;0.11;65.84
70200;BME280;57587;55.688;37.600;2023-02-02T05:41:08;98527.53;;;0.23;65.45
70200;BME280;57587;55.688;37.600;2023-02-02T05:43:35;98530.31;;;0.12;65.23
70200;BME280;57587;55.688;37.600;2023-02-02T05:46:02;98533.19;;;0.18;65.07
70200;BME280;57587;55.688;37.600;2023-02-02T05:48:30;98535.16;;;0.16;65.44
70200;BME280;57587;55.688;37.600;2023-02-02T05:51:27;98534.34;;;0.16;65.57
70200;BME280;57587;55.688;37.600;2023-02-02T05:53:55;98532.13;;;0.11;65.54
70200;BME280;57587;55.688;37.600;2023-02-02T05:56:22;98533.38;;;0.07;65.54
70200;BME280;57587;55.688;37.600;2023-02-02T05:58:49;98537.66;;;0.08;64.88
70200;BME280;57587;55.688;37.600;2023-02-02T06:01:17;98544.56;;;0.19;65.08
70200;BME280;57587;55.688;37.600;2023-02-02T06:03:44;98545.97;;;0.13;64.71
70200;BME280;57587;55.688;37.600;2023-02-02T06:06:12;98540.84;;;0.12;64.75
70200;BME280;57587;55.688;37.600;2023-02-02T06:08:39;98550.09;;;0.26;64.67
70200;BME280;57587;55.688;37.600;2023-02-02T06:11:14;98551.31;;;0.31;64.17
70200;BME280;57587;55.688;37.600;2023-02-02T06:13:42;98551.13;;;0.42;63.93
70200;BME280;57587;55.688;37.600;2023-02-02T06:16:12;98569.94;;;0.48;63.70
70200;BME280;57587;55.688;37.600;2023-02-02T06:18:39;98561.94;;;0.39;63.51
70200;BME280;57587;55.688;37.600;2023-02-02T06:21:06;98562.22;;;0.36;63.97
70200;BME280;57587;55.688;37.600;2023-02-02T06:23:33;98562.22;;;0.36;63.96
70200;BME280;57587;55.688;37.600;2023-02-02T06:26:01;98552.56;;;0.27;63.98
70200;BME280;57587;55.688;37.600;2023-02-02T06:28:30;98560.28;;;0.38;63.75
70200;BME280;57587;55.688;37.600;2023-02-02T06:31:06;98563.69;;;0.49;63.73
70200;BME280;57587;55.688;37.600;2023-02-02T06:33:34;98564.81;;;0.46;63.41
70200;BME280;57587;55.688;37.600;2023-02-02T06:36:03;98563.75;;;0.39;63.50
70200;BME280;57587;55.688;37.600;2023-02-02T06:38:30;98572.63;;;0.38;63.59
70200;BME280;57587;55.688;37.600;2023-02-02T06:40:58;98558.94;;;0.34;63.67
70200;BME280;57587;55.688;37.600;2023-02-02T06:43:26;98564.47;;;0.31;63.72
70200;BME280;57587;55.688;37.600;2023-02-02T06:45:56;98558.34;;;0.40;63.56
70200;BME280;57587;55.688;37.600;2023-02-02T06:48:24;98560.00;;;0.41;63.50
70200;BME280;57587;55.688;37.600;2023-02-02T06:50:51;98558.63;;;0.37;63.56
70200;BME280;57587;55.688;37.600;2023-02-02T06:53:19;98564.19;;;0.34;63.97
70200;BME280;57587;55.688;37.600;2023-02-02T06:55:53;98564.34;;;0.23;63.95
70200;BME280;57587;55.688;37.600;2023-02-02T06:58:21;98576.69;;;0.22;64.02
70200;BME280;57587;55.688;37.600;2023-02-02T07:00:48;98566.41;;;0.29;64.18
70200;BME280;57587;55.688;37.600;2023-02-02T07:03:16;98575.94;;;0.30;63.75
70200;BME280;57587;55.688;37.600;2023-02-02T07:05:43;98577.91;;;0.28;64.19
70200;BME280;57587;55.688;37.600;2023-02-02T07:08:10;98570.31;;;0.25;64.01
70200;BME280;57587;55.688;37.600;2023-02-02T07:10:38;98588.31;;;0.20;64.20
70200;BME280;57587;55.688;37.600;2023-02-02T07:13:25;98585.81;;;0.18;64.37
70200;BME280;57587;55.688;37.600;2023-02-02T07:15:52;98581.38;;;0.29;64.24
70200;BME280;57587;55.688;37.600;2023-02-02T07:18:20;98574.31;;;0.29;63.94
70200;BME280;57587;55.688;37.600;2023-02-02T07:20:48;98578.84;;;0.37;63.90
70200;BME280;57587;55.688;37.600;2023-02-02T07:23:15;98582.13;;;0.49;63.78
70200;BME280;57587;55.688;37.600;2023-02-02T07:25:42;98581.88;;;0.42;63.74
70200;BME280;57587;55.688;37.600;2023-02-02T07:28:09;98578.91;;;0.55;63.66
70200;BME280;57587;55.688;37.600;2023-02-02T07:30:36;98577.66;;;0.59;63.51
70200;BME280;57587;55.688;37.600;2023-02-02T07:33:03;98581.25;;;0.58;63.27
70200;BME280;57587;55.688;37.600;2023-02-02T07:35:30;98581.63;;;0.73;62.93
70200;BME280;57587;55.688;37.600;2023-02-02T07:37:57;98593.84;;;0.64;63.12
70200;BME280;57587;55.688;37.600;2023-02-02T07:40:24;98591.63;;;0.69;62.49
70200;BME280;57587;55.688;37.600;2023-02-02T07:42:51;98591.13;;;0.83;62.89
70200;BME280;57587;55.688;37.600;2023-02-02T07:45:18;98600.88;;;0.73;62.64
70200;BME280;57587;55.688;37.600;2023-02-02T07:47:59;98587.72;;;0.73;62.63
70200;BME280;57587;55.688;37.600;2023-02-02T07:50:28;98593.97;;;0.72;62.60
70200;BME280;57587;55.688;37.600;2023-02-02T07:52:57;98596.56;;;0.44;62.83
70200;BME280;57587;55.688;37.600;2023-02-02T07:55:25;98583.19;;;0.56;63.05
70200;BME280;57587;55.688;37.600;2023-02-02T07:57:53;98592.28;;;0.71;62.86
70200;BME280;57587;55.688;37.600;2023-02-02T08:00:21;98584.78;;;0.76;62.82
70200;BME280;57587;55.688;37.600;2023-02-02T08:02:49;98596.38;;;0.83;61.89
70200;BME280;57587;55.688;37.600;2023-02-02T08:05:16;98590.63;;;0.70;62.69
70200;BME280;57587;55.688;37.600;2023-02-02T08:07:43;98596.16;;;0.77;62.36
70200;BME280;57587;55.688;37.600;2023-02-02T08:10:10;98592.00;;;0.74;62.52
70200;BME280;57587;55.688;37.600;2023-02-02T08:12:37;98594.03;;;0.80;62.50
70200;BME280;57587;55.688;37.600;2023-02-02T08:15:05;98593.91;;;0.82;62.22
70200;BME280;57587;55.688;37.600;2023-02-02T08:17:33;98591.91;;;0.66;62.36
70200;BME280;57587;55.688;37.600;2023-02-02T08:20:00;98592.16;;;0.73;62.33
70200;BME280;57587;55.688;37.600;2023-02-02T08:22:28;98588.94;;;0.79;62.03
70200;BME280;57587;55.688;37.600;2023-02-02T08:24:56;98594.22;;;0.79;61.80
70200;BME280;57587;55.688;37.600;2023-02-02T08:27:23;98606.84;;;0.75;61.18
70200;BME280;57587;55.688;37.600;2023-02-02T08:29:50;98601.63;;;0.56;61.57
70200;BME280;57587;55.688;37.600;2023-02-02T08:32:17;98598.41;;;0.72;61.51
70200;BME280;57587;55.688;37.600;2023-02-02T08:34:47;98602.94;;;0.79;61.20
70200;BME280;57587;55.688;37.600;2023-02-02T08:37:14;98598.06;;;0.84;61.56
70200;BME280;57587;55.688;37.600;2023-02-02T08:39:41;98581.84;;;1.07;60.38
70200;BME280;57587;55.688;37.600;2023-02-02T08:42:09;98588.19;;;1.14;59.56
70200;BME280;57587;55.688;37.600;2023-02-02T08:44:36;98592.63;;;1.13;59.49
70200;BME280;57587;55.688;37.600;2023-02-02T08:47:23;98591.03;;;1.03;59.80
70200;BME280;57587;55.688;37.600;2023-02-02T08:49:50;98587.19;;;0.97;59.55
70200;BME280;57587;55.688;37.600;2023-02-02T08:52:17;98585.03;;;1.10;59.63
70200;BME280;57587;55.688;37.600;2023-02-02T08:54:44;98601.00;;;1.09;59.15
70200;BME280;57587;55.688;37.600;2023-02-02T08:57:11;98591.72;;;1.05;59.09
70200;BME280;57587;55.688;37.600;2023-02-02T08:59:38;98579.66;;;1.48;57.50
70200;BME280;57587;55.688;37.600;2023-02-02T09:02:05;98598.69;;;1.95;56.55
70200;BME280;57587;55.688;37.600;2023-02-02T09:04:32;98577.19;;;2.60;53.82
70200;BME280;57587;55.688;37.600;2023-02-02T09:07:00;98575.25;;;2.70;54.05
70200;BME280;57587;55.688;37.600;2023-02-02T09:09:27;98566.38;;;2.88;53.67
70200;BME280;57587;55.688;37.600;2023-02-02T09:11:56;98573.94;;;2.74;53.67
70200;BME280;57587;55.688;37.600;2023-02-02T09:14:23;98581.16;;;2.64;53.69
70200;BME280;57587;55.688;37.600;2023-02-02T09:16:50;98588.13;;;2.39;53.75
70200;BME280;57587;55.688;37.600;2023-02-02T09:19:17;98575.53;;;2.07;54.45
70200;BME280;57587;55.688;37.600;2023-02-02T09:21:44;98581.91;;;1.78;55.35
70200;BME280;57587;55.688;37.600;2023-02-02T09:24:12;98578.28;;;1.79;55.84
70200;BME280;57587;55.688;37.600;2023-02-02T09:26:39;98576.50;;;2.32;53.96
70200;BME280;57587;55.688;37.600;2023-02-02T09:29:11;98576.34;;;2.60;53.38
70200;BME280;57587;55.688;37.600;2023-02-02T09:31:39;98574.56;;;2.60;53.61
70200;BME280;57587;55.688;37.600;2023-02-02T09:34:12;98589.09;;;2.72;52.19
70200;BME280;57587;55.688;37.600;2023-02-02T09:36:40;98586.50;;;2.81;52.56
70200;BME280;57587;55.688;37.600;2023-02-02T09:39:10;98576.41;;;3.18;51.36
70200;BME280;57587;55.688;37.600;2023-02-02T09:44:43;98573.88;;;2.66;53.11
70200;BME280;57587;55.688;37.600;2023-02-02T09:50:46;98574.16;;;2.21;54.48
70200;BME280;57587;55.688;37.600;2023-02-02T09:53:22;98573.94;;;2.14;54.47
70200;BME280;57587;55.688;37.600;2023-02-02T09:55:56;98581.72;;;1.98;55.10
70200;BME280;57587;55.688;37.600;2023-02-02T09:58:30;98588.00;;;1.79;55.27
70200;BME280;57587;55.688;37.600;2023-02-02T10:01:03;98574.59;;;1.54;55.81
70200;BME280;57587;55.688;37.600;2023-02-02T10:03:40;98559.84;;;1.44;56.53
70200;BME280;57587;55.688;37.600;2023-02-02T10:06:36;98561.34;;;1.46;56.87
70200;BME280;57587;55.688;37.600;2023-02-02T10:14:53;98558.63;;;1.56;56.55
70200;BME280;57587;55.688;37.600;2023-02-02T10:20:20;98554.41;;;1.81;55.82
70200;BME280;57587;55.688;37.600;2023-02-02T10:22:52;98554.00;;;1.94;55.71
70200;BME280;57587;55.688;37.600;2023-02-02T10:25:25;98556.75;;;2.10;55.53
70200;BME280;57587;55.688;37.600;2023-02-02T10:28:17;98554.38;;;1.99;55.12
70200;BME280;57587;55.688;37.600;2023-02-02T10:30:46;98575.69;;;2.05;54.67
70200;BME280;57587;55.688;37.600;2023-02-02T10:33:25;98545.69;;;1.89;55.32
70200;BME280;57587;55.688;37.600;2023-02-02T10:45:17;98550.63;;;2.10;54.45
70200;BME280;57587;55.688;37.600;2023-02-02T10:47:45;98547.53;;;2.40;54.38
70200;BME280;57587;55.688;37.600;2023-02-02T10:52:44;98539.53;;;2.24;54.63
70200;BME280;57587;55.688;37.600;2023-02-02T10:55:27;98543.28;;;2.21;54.59
70200;BME280;57587;55.688;37.600;2023-02-02T11:00:47;98547.41;;;1.98;55.29
70200;BME280;57587;55.688;37.600;2023-02-02T11:03:19;98543.09;;;2.15;54.81
70200;BME280;57587;55.688;37.600;2023-02-02T11:05:46;98536.91;;;2.32;54.68
70200;BME280;57587;55.688;37.600;2023-02-02T11:08:40;98541.28;;;2.84;53.06
70200;BME280;57587;55.688;37.600;2023-02-02T11:13:44;98532.63;;;2.65;53.10
70200;BME280;57587;55.688;37.600;2023-02-02T11:18:43;98541.06;;;2.35;54.53
70200;BME280;57587;55.688;37.600;2023-02-02T11:21:28;98539.44;;;2.07;55.18
70200;BME280;57587;55.688;37.600;2023-02-02T11:26:51;98560.34;;;1.83;55.59
70200;BME280;57587;55.688;37.600;2023-02-02T11:29:28;98550.25;;;1.78;55.59
70200;BME280;57587;55.688;37.600;2023-02-02T11:31:57;98552.97;;;1.69;56.64
70200;BME280;57587;55.688;37.600;2023-02-02T11:34:26;98551.84;;;1.89;56.68
70200;BME280;57587;55.688;37.600;2023-02-02T11:39:23;98558.53;;;1.83;55.75
70200;BME280;57587;55.688;37.600;2023-02-02T11:42:05;98563.44;;;1.60;56.62
70200;BME280;57587;55.688;37.600;2023-02-02T11:44:33;98584.63;;;1.51;56.52
70200;BME280;57587;55.688;37.600;2023-02-02T11:47:03;98560.84;;;1.43;57.20
70200;BME280;57587;55.688;37.600;2023-02-02T11:49:40;98561.19;;;1.48;57.20
70200;BME280;57587;55.688;37.600;2023-02-02T11:52:18;98562.56;;;1.52;57.32
70200;BME280;57587;55.688;37.600;2023-02-02T11:54:49;98560.53;;;1.46;57.30
70200;BME280;57587;55.688;37.600;2023-02-02T11:57:19;98553.88;;;1.42;58.35
70200;BME280;57587;55.688;37.600;2023-02-02T12:00:25;98553.88;;;1.24;58.21
70200;BME280;57587;55.688;37.600;2023-02-02T12:02:53;98565.63;;;1.29;58.18
70200;BME280;57587;55.688;37.600;2023-02-02T12:07:48;98563.44;;;1.25;57.52
70200;BME280;57587;55.688;37.600;2023-02-02T12:10:39;98582.53;;;1.36;57.47
70200;BME280;57587;55.688;37.600;2023-02-02T12:13:39;98578.47;;;1.14;57.97
70200;BME280;57587;55.688;37.600;2023-02-02T12:16:15;98560.13;;;1.23;57.92
70200;BME280;57587;55.688;37.600;2023-02-02T12:21:42;98577.59;;;1.24;57.51
70200;BME280;57587;55.688;37.600;2023-02-02T12:24:33;98569.19;;;0.92;57.97
70200;BME280;57587;55.688;37.600;2023-02-02T12:28:11;98573.84;;;0.81;58.53
70200;BME280;57587;55.688;37.600;2023-02-02T12:39:09;98575.91;;;0.77;58.96
70200;BME280;57587;55.688;37.600;2023-02-02T12:55:47;98592.13;;;0.45;60.04
70200;BME280;57587;55.688;37.600;2023-02-02T12:58:38;98598.06;;;0.47;60.05
70200;BME280;57587;55.688;37.600;2023-02-02T13:12:27;98580.19;;;0.51;60.46
70200;BME280;57587;55.688;37.600;2023-02-02T13:15:10;98594.66;;;0.64;60.55
70200;BME280;57587;55.688;37.600;2023-02-02T13:17:42;98599.53;;;0.69;60.36
70200;BME280;57587;55.688;37.600;2023-02-02T13:20:36;98586.94;;;0.63;60.68
70200;BME280;57587;55.688;37.600;2023-02-02T13:23:09;98596.53;;;0.54;60.99
70200;BME280;57587;55.688;37.600;2023-02-02T13:25:49;98586.13;;;0.53;61.30
70200;BME280;57587;55.688;37.600;2023-02-02T13:28:34;98592.63;;;0.58;61.07
70200;BME280;57587;55.688;37.600;2023-02-02T13:31:10;98575.91;;;0.50;61.17
70200;BME280;57587;55.688;37.600;2023-02-02T13:33:40;98585.53;;;0.59;61.49
70200;BME280;57587;55.688;37.600;2023-02-02T13:36:17;98575.72;;;0.61;60.94
70200;BME280;57587;55.688;37.600;2023-02-02T13:38:58;98590.38;;;0.63;61.55
70200;BME280;57587;55.688;37.600;2023-02-02T13:41:26;98584.88;;;0.57;61.64
70200;BME280;57587;55.688;37.600;2023-02-02T13:44:02;98580.97;;;0.61;61.28
70200;BME280;57587;55.688;37.600;2023-02-02T13:54:53;98592.09;;;1.55;60.02
70200;BME280;57587;55.688;37.600;2023-02-02T14:00:29;98608.09;;;1.26;60.26
70200;BME280;57587;55.688;37.600;2023-02-02T14:03:03;98603.69;;;0.99;60.74
70200;BME280;57587;55.688;37.600;2023-02-02T14:05:37;98596.91;;;0.97;60.71
70200;BME280;57587;55.688;37.600;2023-02-02T14:16:01;98625.59;;;0.62;61.59
70200;BME280;57587;55.688;37.600;2023-02-02T14:24:01;98628.94;;;0.55;62.44
70200;BME280;57587;55.688;37.600;2023-02-02T14:26:46;98623.38;;;0.58;62.35
70200;BME280;57587;55.688;37.600;2023-02-02T14:34:44;98620.00;;;0.75;61.79
70200;BME280;57587;55.688;37.600;2023-02-02T14:45:38;98621.84;;;0.92;61.41
70200;BME280;57587;55.688;37.600;2023-02-02T14:50:46;98625.81;;;0.79;61.69
70200;BME280;57587;55.688;37.600;2023-02-02T15:03:50;98637.66;;;0.92;61.35
70200;BME280;57587;55.688;37.600;2023-02-02T15:06:36;98649.28;;;1.00;62.15
70200;BME280;57587;55.688;37.600;2023-02-02T15:20:04;98650.81;;;1.02;61.19
70200;BME280;57587;55.688;37.600;2023-02-02T15:25:29;98635.59;;;0.86;61.84
70200;BME280;57587;55.688;37.600;2023-02-02T15:28:20;98641.56;;;0.88;62.35
70200;BME280;57587;55.688;37.600;2023-02-02T15:30:58;98640.69;;;0.98;61.64
70200;BME280;57587;55.688;37.600;2023-02-02T15:33:34;98645.44;;;0.94;61.80
70200;BME280;57587;55.688;37.600;2023-02-02T15:36:08;98648.47;;;0.89;62.09
70200;BME280;57587;55.688;37.600;2023-02-02T15:38:40;98657.91;;;0.92;61.97
70200;BME280;57587;55.688;37.600;2023-02-02T15:41:19;98650.13;;;1.00;61.70
70200;BME280;57587;55.688;37.600;2023-02-02T15:43:47;98651.63;;;1.03;61.98
70200;BME280;57587;55.688;37.600;2023-02-02T15:46:17;98667.00;;;1.07;61.54
70200;BME280;57587;55.688;37.600;2023-02-02T15:52:10;98665.66;;;0.94;62.20
70200;BME280;57587;55.688;37.600;2023-02-02T15:54:48;98661.34;;;0.92;62.02
70200;BME280;57587;55.688;37.600;2023-02-02T15:57:36;98657.47;;;0.97;62.15
70200;BME280;57587;55.688;37.600;2023-02-02T16:03:04;98685.94;;;0.83;61.86
70200;BME280;57587;55.688;37.600;2023-02-02T16:08:23;98674.88;;;0.70;63.01
70200;BME280;57587;55.688;37.600;2023-02-02T16:11:11;98667.66;;;0.82;63.26
70200;BME280;57587;55.688;37.600;2023-02-02T16:13:45;98678.72;;;0.85;62.62
70200;BME280;57587;55.688;37.600;2023-02-02T16:16:25;98683.88;;;0.77;62.44
70200;BME280;57587;55.688;37.600;2023-02-02T16:19:20;98674.19;;;0.78;62.64
70200;BME280;57587;55.688;37.600;2023-02-02T16:24:28;98673.25;;;0.69;63.06
70200;BME280;57587;55.688;37.600;2023-02-02T16:26:59;98683.47;;;0.72;63.31
70200;BME280;57587;55.688;37.600;2023-02-02T16:29:27;98670.03;;;0.75;63.31